createdAt,value
2023-05-11T00:01:40.835Z,100558.00
2023-05-11T00:04:09.048Z,100562.20
2023-05-11T00:06:36.853Z,100564.00
2023-05-11T00:09:05.078Z,100558.80
2023-05-11T00:11:32.813Z,100556.00
2023-05-11T00:14:00.673Z,100553.60
2023-05-11T00:16:28.574Z,100559.60
2023-05-11T00:18:56.516Z,100556.00
2023-05-11T00:21:24.440Z,100555.40
2023-05-11T00:23:52.298Z,100551.20
2023-05-11T00:26:20.166Z,100554.60
2023-05-11T00:28:48.669Z,100556.20
2023-05-11T00:31:16.706Z,100558.80
2023-05-11T00:33:44.488Z,100556.20
2023-05-11T00:36:12.322Z,100552.60
2023-05-11T00:38:41.380Z,100550.20
2023-05-11T00:41:09.207Z,100555.20
2023-05-11T00:43:37.086Z,100554.00
2023-05-11T00:46:05.586Z,100548.40
2023-05-11T00:48:34.201Z,100549.40
2023-05-11T00:51:03.959Z,100556.60
2023-05-11T00:53:31.822Z,100552.60
2023-05-11T00:55:59.824Z,100555.40
2023-05-11T00:58:27.649Z,100556.80
2023-05-11T01:00:55.903Z,100559.20
2023-05-11T01:03:24.042Z,100555.20
2023-05-11T01:06:17.412Z,100558.00
2023-05-11T01:09:01.432Z,100558.80
2023-05-11T01:12:15.781Z,100551.80
2023-05-11T01:15:01.974Z,100553.80
2023-05-11T01:17:57.928Z,100554.20
2023-05-11T01:20:29.959Z,100555.60
2023-05-11T01:23:44.967Z,100552.80
2023-05-11T01:26:35.382Z,100558.60
2023-05-11T01:29:46.627Z,100558.20
2023-05-11T01:32:38.933Z,100561.20
2023-05-11T01:35:19.505Z,100558.40
2023-05-11T01:37:53.639Z,100560.20
2023-05-11T01:40:29.390Z,100560.40
2023-05-11T01:43:04.825Z,100559.60
2023-05-11T01:45:41.006Z,100561.80
2023-05-11T01:48:17.198Z,100561.00
2023-05-11T01:50:46.525Z,100564.00
2023-05-11T01:53:17.988Z,100562.40
2023-05-11T01:55:47.495Z,100566.40
2023-05-11T01:58:18.125Z,100571.00
2023-05-11T02:00:47.596Z,100574.00
2023-05-11T02:03:16.811Z,100574.60
2023-05-11T02:05:48.281Z,100575.00
2023-05-11T02:08:18.384Z,100577.00
2023-05-11T02:10:48.426Z,100578.40
2023-05-11T02:13:19.514Z,100576.20
2023-05-11T02:15:52.998Z,100587.20
2023-05-11T02:18:21.354Z,100586.20
2023-05-11T02:20:59.370Z,100585.40
2023-05-11T02:23:30.320Z,100583.40
2023-05-11T02:25:58.424Z,100591.20
2023-05-11T02:28:26.765Z,100591.20
2023-05-11T02:31:01.835Z,100598.00
2023-05-11T02:33:36.463Z,100596.00
2023-05-11T02:36:08.188Z,100594.00
2023-05-11T02:38:39.455Z,100598.80
2023-05-11T02:41:13.902Z,100597.20
2023-05-11T02:43:51.099Z,100602.40
2023-05-11T02:46:26.362Z,100603.40
2023-05-11T02:49:00.961Z,100603.20
2023-05-11T02:51:42.955Z,100605.00
2023-05-11T02:54:14.682Z,100603.80
2023-05-11T02:56:45.781Z,100602.00
2023-05-11T02:59:15.508Z,100605.20
2023-05-11T03:01:44.253Z,100602.60
2023-05-11T03:04:12.519Z,100603.40
2023-05-11T03:06:40.687Z,100608.40
2023-05-11T03:09:10.272Z,100611.40
2023-05-11T03:11:43.295Z,100609.80
2023-05-11T03:14:11.445Z,100612.40
2023-05-11T03:16:41.123Z,100613.40
2023-05-11T03:19:10.203Z,100613.60
2023-05-11T03:21:39.774Z,100611.20
2023-05-11T03:24:09.099Z,100604.60
2023-05-11T03:26:37.771Z,100609.20
2023-05-11T03:29:08.980Z,100607.00
2023-05-11T03:31:37.165Z,100610.80
2023-05-11T03:34:05.410Z,100609.00
2023-05-11T03:36:39.282Z,100607.60
2023-05-11T03:39:11.385Z,100610.80
2023-05-11T03:41:41.173Z,100612.40
2023-05-11T03:44:12.970Z,100610.20
2023-05-11T03:46:45.368Z,100605.40
2023-05-11T03:49:15.696Z,100600.80
2023-05-11T03:51:44.870Z,100597.40
2023-05-11T03:54:13.342Z,100600.20
2023-05-11T03:56:41.821Z,100600.20
2023-05-11T03:59:16.626Z,100601.80
2023-05-11T04:01:45.338Z,100601.40
2023-05-11T04:04:13.228Z,100601.40
2023-05-11T04:06:41.278Z,100602.20
2023-05-11T04:09:20.757Z,100602.20
2023-05-11T04:11:48.581Z,100602.80
2023-05-11T04:14:17.638Z,100605.00
2023-05-11T04:16:45.469Z,100595.80
2023-05-11T04:19:13.272Z,100598.80
2023-05-11T04:21:41.104Z,100603.60
2023-05-11T04:24:09.000Z,100598.40
2023-05-11T04:26:36.832Z,100595.60
2023-05-11T04:29:05.043Z,100596.60
2023-05-11T04:31:32.966Z,100594.20
2023-05-11T04:34:01.610Z,100595.40
2023-05-11T04:36:29.413Z,100598.20
2023-05-11T04:38:57.284Z,100603.40
2023-05-11T04:41:25.034Z,100598.60
2023-05-11T04:43:53.338Z,100605.80
2023-05-11T04:46:22.708Z,100597.80
2023-05-11T04:48:50.642Z,100606.60
2023-05-11T04:51:18.524Z,100607.40
2023-05-11T04:53:46.426Z,100612.40
2023-05-11T04:56:14.123Z,100610.80
2023-05-11T04:58:42.887Z,100611.20
2023-05-11T05:01:11.041Z,100609.60
2023-05-11T05:03:38.971Z,100614.40
2023-05-11T05:06:06.987Z,100613.80
2023-05-11T05:08:34.729Z,100617.20
2023-05-11T05:11:02.627Z,100619.40
2023-05-11T05:13:31.029Z,100621.00
2023-05-11T05:15:58.861Z,100628.20
2023-05-11T05:18:26.690Z,100627.20
2023-05-11T05:20:55.607Z,100631.00
2023-05-11T05:23:23.393Z,100629.20
2023-05-11T05:25:51.364Z,100631.20
2023-05-11T05:28:19.484Z,100634.20
2023-05-11T05:30:47.521Z,100640.00
2023-05-11T05:33:16.093Z,100634.60
2023-05-11T05:35:46.532Z,100638.20
2023-05-11T05:38:14.509Z,100637.20
2023-05-11T05:40:42.750Z,100638.20
2023-05-11T05:43:11.289Z,100641.20
2023-05-11T05:45:39.245Z,100640.00
2023-05-11T05:48:07.252Z,100645.40
2023-05-11T05:50:35.358Z,100641.80
2023-05-11T05:53:03.315Z,100640.40
2023-05-11T05:55:31.843Z,100635.40
2023-05-11T05:58:02.299Z,100640.40
2023-05-11T06:00:31.194Z,100640.40
2023-05-11T06:03:02.616Z,100639.80
2023-05-11T06:05:30.519Z,100642.60
2023-05-11T06:08:10.041Z,100646.60
2023-05-11T06:10:39.373Z,100642.60
2023-05-11T06:13:08.990Z,100644.40
2023-05-11T06:15:37.305Z,100644.40
2023-05-11T06:18:11.256Z,100649.00
2023-05-11T06:20:41.016Z,100655.00
2023-05-11T06:23:09.021Z,100657.80
2023-05-11T06:25:39.003Z,100658.60
2023-05-11T06:28:08.076Z,100657.40
2023-05-11T06:30:36.523Z,100660.80
2023-05-11T06:33:06.607Z,100657.60
2023-05-11T06:35:38.003Z,100660.00
2023-05-11T06:38:10.841Z,100656.60
2023-05-11T06:40:38.780Z,100659.60
2023-05-11T06:43:06.693Z,100661.00
2023-05-11T06:45:48.474Z,100663.00
2023-05-11T06:48:16.459Z,100660.00
2023-05-11T06:50:44.470Z,100662.80
2023-05-11T06:53:14.241Z,100666.40
2023-05-11T06:55:42.160Z,100674.80
2023-05-11T06:58:09.976Z,100668.20
2023-05-11T07:00:37.821Z,100668.60
2023-05-11T07:03:06.570Z,100671.00
2023-05-11T07:05:37.005Z,100668.00
2023-05-11T07:08:05.542Z,100672.20
2023-05-11T07:10:33.561Z,100673.20
2023-05-11T07:13:01.533Z,100674.00
2023-05-11T07:15:29.369Z,100669.00
2023-05-11T07:17:57.235Z,100675.20
2023-05-11T07:20:25.197Z,100673.80
2023-05-11T07:22:58.607Z,100678.60
2023-05-11T07:25:26.427Z,100676.00
2023-05-11T07:27:54.185Z,100673.40
2023-05-11T07:30:22.410Z,100673.80
2023-05-11T07:32:50.777Z,100673.20
2023-05-11T07:35:18.587Z,100677.20
2023-05-11T07:37:46.430Z,100677.40
2023-05-11T07:40:14.226Z,100676.40
2023-05-11T07:42:42.095Z,100674.20
2023-05-11T07:45:10.590Z,100677.00
2023-05-11T07:47:38.559Z,100680.00
2023-05-11T07:50:07.687Z,100679.80
2023-05-11T07:52:35.516Z,100678.00
2023-05-11T07:55:03.568Z,100675.40
2023-05-11T07:57:31.405Z,100681.20
2023-05-11T07:59:59.148Z,100681.00
2023-05-11T08:02:26.963Z,100681.40
2023-05-11T08:04:54.890Z,100683.00
2023-05-11T08:07:22.662Z,100682.20
2023-05-11T08:09:50.540Z,100682.60
2023-05-11T08:12:18.286Z,100677.60
2023-05-11T08:14:46.113Z,100678.20
2023-05-11T08:17:13.958Z,100678.60
2023-05-11T08:19:41.740Z,100678.20
2023-05-11T08:22:09.940Z,100679.00
2023-05-11T08:24:37.685Z,100680.60
2023-05-11T08:27:06.149Z,100681.20
2023-05-11T08:29:34.007Z,100683.20
2023-05-11T08:32:02.194Z,100685.80
2023-05-11T08:34:30.218Z,100688.40
2023-05-11T08:37:01.537Z,100691.40
2023-05-11T08:39:45.438Z,100688.40
2023-05-11T08:42:17.127Z,100692.60
2023-05-11T08:44:46.236Z,100693.20
2023-05-11T08:49:46.575Z,100693.20
2023-05-11T08:52:18.142Z,100693.80
2023-05-11T08:54:47.623Z,100691.80
2023-05-11T08:57:16.692Z,100695.00
2023-05-11T08:59:46.914Z,100697.40
2023-05-11T09:02:18.876Z,100693.20
2023-05-11T09:04:48.790Z,100696.80
2023-05-11T09:07:18.457Z,100697.60
2023-05-11T09:09:47.926Z,100701.00
2023-05-11T09:12:17.322Z,100693.20
2023-05-11T09:14:46.699Z,100699.80
2023-05-11T09:17:14.617Z,100694.20
2023-05-11T09:20:09.129Z,100702.80
2023-05-11T09:22:46.481Z,100698.40
2023-05-11T09:25:17.490Z,100697.80
2023-05-11T09:27:47.454Z,100697.00
2023-05-11T09:30:23.199Z,100698.40
2023-05-11T09:32:55.194Z,100696.60
2023-05-11T09:35:31.866Z,100701.20
2023-05-11T09:38:12.813Z,100700.40
2023-05-11T09:40:51.140Z,100698.00
2023-05-11T09:43:28.056Z,100696.00
2023-05-11T09:45:58.433Z,100701.20
2023-05-11T09:48:30.305Z,100695.80
2023-05-11T09:51:08.615Z,100698.20
2023-05-11T09:53:46.173Z,100700.80
2023-05-11T09:56:15.672Z,100705.20
2023-05-11T09:58:57.471Z,100702.40
2023-05-11T10:01:32.221Z,100706.80
2023-05-11T10:04:17.951Z,100700.60
2023-05-11T10:06:53.537Z,100703.80
2023-05-11T10:09:26.143Z,100709.80
2023-05-11T10:11:55.655Z,100701.20
2023-05-11T10:14:27.464Z,100706.20
2023-05-11T10:16:58.515Z,100715.40
2023-05-11T10:19:27.612Z,100714.40
2023-05-11T10:21:57.268Z,100718.20
2023-05-11T10:24:25.655Z,100724.00
2023-05-11T10:26:57.413Z,100724.20
2023-05-11T10:29:26.758Z,100720.00
2023-05-11T10:31:57.949Z,100722.80
2023-05-11T10:34:29.322Z,100724.00
2023-05-11T10:37:01.688Z,100727.80
2023-05-11T10:39:30.848Z,100725.80
2023-05-11T10:42:38.175Z,100720.80
2023-05-11T10:45:18.110Z,100723.20
2023-05-11T10:48:33.659Z,100726.40
2023-05-11T10:51:29.001Z,100724.00
2023-05-11T10:54:20.881Z,100721.00
2023-05-11T10:57:33.930Z,100715.80
2023-05-11T11:00:35.827Z,100708.80
2023-05-11T11:03:14.736Z,100717.60
2023-05-11T11:05:45.074Z,100714.60
2023-05-11T11:08:12.994Z,100705.60
2023-05-11T11:10:45.958Z,100710.00
2023-05-11T11:13:20.234Z,100710.40
2023-05-11T11:15:54.298Z,100707.20
2023-05-11T11:18:28.189Z,100701.40
2023-05-11T11:20:58.518Z,100694.20
2023-05-11T11:23:50.327Z,100695.20
2023-05-11T11:26:51.936Z,100696.00
2023-05-11T11:29:19.613Z,100698.40
2023-05-11T11:31:47.688Z,100696.80
2023-05-11T11:34:27.515Z,100695.80
2023-05-11T11:36:55.309Z,100695.40
2023-05-11T11:39:26.961Z,100695.20
2023-05-11T11:42:02.804Z,100697.80
2023-05-11T11:44:31.333Z,100689.00
2023-05-11T11:47:22.772Z,100690.00
2023-05-11T11:49:54.388Z,100682.40
2023-05-11T11:52:28.594Z,100687.40
2023-05-11T11:55:01.093Z,100686.00
2023-05-11T11:57:34.618Z,100683.80
2023-05-11T12:00:06.920Z,100679.80
2023-05-11T12:02:46.287Z,100689.00
2023-05-11T12:05:23.376Z,100677.20
2023-05-11T12:07:53.422Z,100673.80
2023-05-11T12:10:23.009Z,100678.20
2023-05-11T12:12:55.089Z,100673.60
2023-05-11T12:15:29.905Z,100669.80
2023-05-11T12:17:58.319Z,100670.80
2023-05-11T12:20:26.429Z,100673.40
2023-05-11T12:22:54.413Z,100672.20
2023-05-11T12:25:22.825Z,100671.40
2023-05-11T12:28:01.912Z,100665.40
2023-05-11T12:30:35.341Z,100665.00
2023-05-11T12:33:04.568Z,100668.20
2023-05-11T12:35:34.345Z,100665.80
2023-05-11T12:38:02.781Z,100662.00
2023-05-11T12:40:31.888Z,100657.20
2023-05-11T12:43:00.969Z,100655.20
2023-05-11T12:45:29.641Z,100656.60
2023-05-11T12:47:58.559Z,100654.60
2023-05-11T12:50:26.412Z,100655.00
2023-05-11T12:52:54.210Z,100650.60
2023-05-11T12:55:30.686Z,100647.60
2023-05-11T12:58:16.617Z,100650.60
2023-05-11T13:00:57.015Z,100646.80
2023-05-11T13:03:28.193Z,100644.20
2023-05-11T13:06:13.500Z,100651.00
2023-05-11T13:08:46.800Z,100652.20
2023-05-11T13:11:26.880Z,100648.20
2023-05-11T13:13:57.133Z,100655.00
2023-05-11T13:16:31.289Z,100650.00
2023-05-11T13:19:10.234Z,100652.20
2023-05-11T13:21:38.228Z,100652.40
2023-05-11T13:24:06.367Z,100651.00
2023-05-11T13:26:34.276Z,100651.00
2023-05-11T13:29:10.833Z,100646.80
2023-05-11T13:31:47.500Z,100646.40
2023-05-11T13:34:16.245Z,100649.00
2023-05-11T13:36:45.892Z,100647.20
2023-05-11T13:39:13.696Z,100649.40
2023-05-11T13:41:41.517Z,100655.60
2023-05-11T13:44:09.435Z,100648.00
2023-05-11T13:46:37.283Z,100644.80
2023-05-11T13:49:06.097Z,100645.80
2023-05-11T13:51:34.578Z,100649.80
2023-05-11T13:54:02.609Z,100642.60
2023-05-11T13:56:31.545Z,100637.40
2023-05-11T13:59:00.108Z,100640.00
2023-05-11T14:01:28.246Z,100637.80
2023-05-11T14:03:57.210Z,100641.60
2023-05-11T14:06:25.774Z,100644.60
2023-05-11T14:08:55.276Z,100642.00
2023-05-11T14:11:23.514Z,100640.00
2023-05-11T14:13:51.792Z,100636.60
2023-05-11T14:16:20.625Z,100633.80
2023-05-11T14:18:50.742Z,100623.40
2023-05-11T14:21:18.754Z,100628.60
2023-05-11T14:24:01.960Z,100628.60
2023-05-11T14:26:30.275Z,100626.40
2023-05-11T14:28:58.384Z,100624.00
2023-05-11T14:31:26.815Z,100628.80
2023-05-11T14:33:56.549Z,100625.60
2023-05-11T14:36:24.499Z,100626.40
2023-05-11T14:38:52.324Z,100625.60
2023-05-11T14:41:21.059Z,100622.00
2023-05-11T14:43:49.488Z,100622.20
2023-05-11T14:46:17.809Z,100621.40
2023-05-11T14:48:45.732Z,100623.80
2023-05-11T14:51:13.547Z,100616.80
2023-05-11T14:53:41.479Z,100618.00
2023-05-11T14:56:09.596Z,100619.60
2023-05-11T14:58:37.693Z,100617.40
2023-05-11T15:01:05.521Z,100614.40
2023-05-11T15:03:33.279Z,100619.00
2023-05-11T15:06:01.083Z,100609.40
2023-05-11T15:08:30.191Z,100613.40
2023-05-11T15:10:59.029Z,100616.60
2023-05-11T15:13:27.031Z,100617.80
2023-05-11T15:15:54.914Z,100619.80
2023-05-11T15:18:22.721Z,100626.40
2023-05-11T15:20:50.554Z,100628.00
2023-05-11T15:23:18.309Z,100627.80
2023-05-11T15:25:48.014Z,100629.60
2023-05-11T15:28:15.902Z,100628.00
2023-05-11T15:30:43.766Z,100633.80
2023-05-11T15:33:11.692Z,100633.60
2023-05-11T15:35:39.580Z,100636.40
2023-05-11T15:38:07.401Z,100640.20
2023-05-11T15:40:35.132Z,100640.60
2023-05-11T15:43:03.161Z,100640.80
2023-05-11T15:45:31.058Z,100647.80
2023-05-11T15:47:58.909Z,100647.40
2023-05-11T15:50:26.809Z,100650.00
2023-05-11T15:52:56.354Z,100646.80
2023-05-11T15:55:25.457Z,100647.00
2023-05-11T15:57:53.642Z,100649.40
2023-05-11T16:00:21.931Z,100651.80
2023-05-11T16:02:50.060Z,100653.80
2023-05-11T16:05:18.064Z,100655.60
2023-05-11T16:07:45.901Z,100656.80
2023-05-11T16:10:13.678Z,100660.00
2023-05-11T16:12:41.792Z,100660.20
2023-05-11T16:15:10.327Z,100665.20
2023-05-11T16:17:38.193Z,100668.40
2023-05-11T16:20:07.036Z,100669.80
2023-05-11T16:22:36.095Z,100665.60
2023-05-11T16:25:04.209Z,100666.40
2023-05-11T16:27:32.084Z,100671.00
2023-05-11T16:30:01.199Z,100675.40
2023-05-11T16:32:33.822Z,100676.80
2023-05-11T16:35:01.680Z,100675.20
2023-05-11T16:37:29.412Z,100682.80
2023-05-11T16:39:57.307Z,100689.20
2023-05-11T16:42:25.620Z,100690.80
2023-05-11T16:44:53.508Z,100695.60
2023-05-11T16:47:21.306Z,100696.80
2023-05-11T16:49:49.224Z,100696.40
2023-05-11T16:52:17.923Z,100695.80
2023-05-11T16:54:45.867Z,100699.80
2023-05-11T16:57:13.807Z,100699.60
2023-05-11T16:59:41.550Z,100708.80
2023-05-11T17:02:09.562Z,100716.40
2023-05-11T17:04:37.361Z,100724.40
2023-05-11T17:07:05.610Z,100730.20
2023-05-11T17:09:33.401Z,100736.80
2023-05-11T17:12:01.189Z,100742.80
2023-05-11T17:14:29.079Z,100748.60
2023-05-11T17:16:56.886Z,100751.40
2023-05-11T17:19:25.035Z,100755.80
2023-05-11T17:21:52.812Z,100755.60
2023-05-11T17:24:21.594Z,100760.00
2023-05-11T17:26:49.501Z,100762.20
2023-05-11T17:29:17.408Z,100763.00
2023-05-11T17:31:48.718Z,100771.60
2023-05-11T17:34:18.409Z,100766.00
2023-05-11T17:36:46.504Z,100778.60
2023-05-11T17:39:15.974Z,100776.80
2023-05-11T17:41:43.814Z,100782.40
2023-05-11T17:44:13.350Z,100782.40
2023-05-11T17:46:41.190Z,100793.00
2023-05-11T17:49:10.375Z,100795.60
2023-05-11T17:51:38.339Z,100794.80
2023-05-11T17:54:06.338Z,100797.60
2023-05-11T17:56:34.822Z,100795.20
2023-05-11T17:59:03.261Z,100799.20
2023-05-11T18:01:33.989Z,100802.20
2023-05-11T18:04:04.661Z,100806.40
2023-05-11T18:06:34.965Z,100807.60
2023-05-11T18:09:06.100Z,100809.80
2023-05-11T18:11:33.965Z,100812.20
2023-05-11T18:14:01.839Z,100810.80
2023-05-11T18:16:29.746Z,100807.60
2023-05-11T18:18:59.628Z,100814.60
2023-05-11T18:21:28.161Z,100816.00
2023-05-11T18:23:56.568Z,100821.60
2023-05-11T18:26:26.209Z,100825.20
2023-05-11T18:28:57.125Z,100828.60
2023-05-11T18:31:25.163Z,100831.40
2023-05-11T18:33:52.992Z,100829.80
2023-05-11T18:36:20.853Z,100836.80
2023-05-11T18:38:51.431Z,100833.00
2023-05-11T18:41:19.205Z,100839.40
2023-05-11T18:43:50.184Z,100837.60
2023-05-11T18:46:18.045Z,100844.80
2023-05-11T18:48:46.111Z,100847.40
2023-05-11T18:51:18.811Z,100853.60
2023-05-11T18:53:46.596Z,100857.80
2023-05-11T18:56:14.377Z,100852.40
2023-05-11T18:58:43.973Z,100858.80
2023-05-11T19:01:11.934Z,100862.00
2023-05-11T19:03:40.005Z,100865.60
2023-05-11T19:06:08.058Z,100871.60
2023-05-11T19:08:35.856Z,100874.40
2023-05-11T19:11:09.946Z,100876.60
2023-05-11T19:13:37.919Z,100878.80
2023-05-11T19:16:05.921Z,100893.20
2023-05-11T19:18:35.620Z,100899.60
2023-05-11T19:21:05.244Z,100905.60
2023-05-11T19:23:33.707Z,100908.80
2023-05-11T19:26:01.634Z,100915.20
2023-05-11T19:28:29.438Z,100915.60
2023-05-11T19:31:06.349Z,100918.20
2023-05-11T19:33:34.380Z,100915.60
2023-05-11T19:36:03.053Z,100923.20
2023-05-11T19:38:31.134Z,100926.20
2023-05-11T19:40:59.213Z,100930.40
2023-05-11T19:43:27.395Z,100936.20
2023-05-11T19:45:57.723Z,100941.40
2023-05-11T19:48:28.490Z,100938.00
2023-05-11T19:50:57.052Z,100944.00
2023-05-11T19:53:27.512Z,100944.80
2023-05-11T19:55:55.502Z,100945.80
2023-05-11T19:58:24.307Z,100944.20
2023-05-11T20:00:52.554Z,100950.40
2023-05-11T20:03:21.230Z,100953.40
2023-05-11T20:05:50.462Z,100950.00
2023-05-11T20:08:18.354Z,100947.60
2023-05-11T20:10:46.191Z,100949.80
2023-05-11T20:13:14.001Z,100960.80
2023-05-11T20:15:42.942Z,100962.60
2023-05-11T20:18:10.962Z,100966.60
2023-05-11T20:20:38.764Z,100975.20
2023-05-11T20:23:06.611Z,100979.40
2023-05-11T20:25:34.450Z,100988.00
2023-05-11T20:28:02.527Z,100986.40
2023-05-11T20:30:30.345Z,100991.00
2023-05-11T20:35:28.883Z,100996.00
2023-05-11T20:37:56.765Z,100996.40
2023-05-11T20:40:25.608Z,101001.40
2023-05-11T20:42:54.295Z,101002.80
2023-05-11T20:45:23.038Z,100999.00
2023-05-11T20:47:51.838Z,101009.80
2023-05-11T20:50:21.254Z,101007.00
2023-05-11T20:52:50.256Z,101010.00
2023-05-11T20:55:18.810Z,101010.80
2023-05-11T20:57:46.794Z,101015.60
2023-05-11T21:00:16.297Z,101013.80
2023-05-11T21:02:46.529Z,101018.20
2023-05-11T21:05:14.812Z,101018.00
2023-05-11T21:07:42.745Z,101021.20
2023-05-11T21:10:12.506Z,101021.00
2023-05-11T21:12:40.481Z,101024.60
2023-05-11T21:15:09.256Z,101029.60
2023-05-11T21:17:37.121Z,101027.00
2023-05-11T21:20:05.657Z,101028.80
2023-05-11T21:22:35.322Z,101022.20
2023-05-11T21:25:04.513Z,101023.00
2023-05-11T21:27:33.369Z,101024.40
2023-05-11T21:30:01.295Z,101026.20
2023-05-11T21:32:29.265Z,101029.00
2023-05-11T21:34:57.566Z,101032.40
2023-05-11T21:37:25.439Z,101030.00
2023-05-11T21:39:53.148Z,101024.60
2023-05-11T21:42:21.811Z,101024.80
2023-05-11T21:44:49.709Z,101023.80
2023-05-11T21:47:17.755Z,101028.00
2023-05-11T21:49:45.475Z,101030.40
2023-05-11T21:52:13.259Z,101028.00
2023-05-11T21:54:41.178Z,101025.20
2023-05-11T21:57:09.218Z,101030.20
2023-05-11T21:59:36.940Z,101033.80
2023-05-11T22:02:04.984Z,101034.40
2023-05-11T22:04:33.029Z,101032.60
2023-05-11T22:07:01.817Z,101033.20
2023-05-11T22:09:31.407Z,101036.60
2023-05-11T22:11:59.202Z,101044.00
2023-05-11T22:14:27.001Z,101044.40
2023-05-11T22:16:54.773Z,101045.20
2023-05-11T22:19:22.512Z,101046.80
2023-05-11T22:21:50.508Z,101042.20
2023-05-11T22:24:18.337Z,101043.80
2023-05-11T22:26:46.092Z,101046.60
2023-05-11T22:29:14.124Z,101041.20
2023-05-11T22:31:44.653Z,101040.40
2023-05-11T22:34:15.056Z,101039.00
2023-05-11T22:36:43.099Z,101038.40
2023-05-11T22:39:11.438Z,101043.40
2023-05-11T22:41:39.350Z,101042.40
2023-05-11T22:44:08.963Z,101048.80
2023-05-11T22:46:37.102Z,101047.20
2023-05-11T22:49:04.922Z,101056.40
2023-05-11T22:51:32.817Z,101051.60
2023-05-11T22:54:00.684Z,101054.20
2023-05-11T22:56:30.550Z,101051.00
2023-05-11T22:59:01.864Z,101051.60
2023-05-11T23:01:29.683Z,101056.40
2023-05-11T23:03:58.164Z,101063.80
2023-05-11T23:06:26.526Z,101057.20
2023-05-11T23:08:54.354Z,101057.00
2023-05-11T23:11:22.133Z,101061.60
2023-05-11T23:13:50.039Z,101064.60
2023-05-11T23:16:17.947Z,101065.40
2023-05-11T23:18:46.023Z,101068.80
2023-05-11T23:21:14.008Z,101063.80
2023-05-11T23:23:44.731Z,101068.00
2023-05-11T23:26:12.725Z,101071.20
2023-05-11T23:28:41.381Z,101073.00
2023-05-11T23:31:09.137Z,101074.20
2023-05-11T23:33:36.964Z,101073.20
2023-05-11T23:36:05.458Z,101076.00
2023-05-11T23:38:33.267Z,101075.80
2023-05-11T23:41:01.039Z,101081.20
2023-05-11T23:43:28.936Z,101082.60
2023-05-11T23:45:57.637Z,101082.80
2023-05-11T23:48:25.436Z,101089.40
2023-05-11T23:50:53.274Z,101086.80
2023-05-11T23:53:21.022Z,101093.40
2023-05-11T23:55:48.975Z,101093.80
2023-05-11T23:58:16.820Z,101091.20
